Historyczne dane pomiarowe

Dodano dane terminowe – wersja testowa.

Dane z okresu 1951-2019

Wersja bazy: 1.34 [2019-03-16, lista zmian], aktualizacja planowana na 2019-04-15

Dane meteo z obszaru Polski uzyskane na podstawie danych udostępnionych przez Instytut Meteorologii i Gospodarki Wodnej – Państwowy Instytut Badawczy.

 

Wybierz Datę:    

       

TemperaturaWilgotnośćWiatrCiśnienieOpadyŚniegCzas trwania zjawisk
 Stacja t tx tn tng RH VA  wxwx mslp ppp RRR   cm mm wxwxwxwxwxwxwx
1977-10-10 14.1 21.5 6.7 3.8 77.8- 3.7 1.3---- 2.5------------
1977-10-09 15.5 22.7 8.8 4.3 71.0- 0.0 1.3---- 0.0------------
1977-10-08 16.0 24.4 9.4 6.8 74.0- 0.0 2.0---- 0.0------------
1977-10-07 13.8 22.7 6.8 3.7 80.5- 0.0 1.0---- 0.0------------
1977-10-06 12.2 20.9 5.2 1.8 76.8- 0.3 1.3---- 0.0------------
1977-10-05 11.5 16.9 8.0 3.3 71.0- 3.7 2.7---- 0.0------------
1977-10-04 8.2 12.4 5.7 4.4 81.0- 3.0 2.0---- 0.0------------
1977-10-03 6.9 10.5 6.0 3.4 84.5- 6.7 2.3---- 4.6------------
1977-10-02 8.1 11.8 5.8 4.1 72.8- 4.3 4.3---- 2.8------------
1977-10-01 11.5 15.1 7.4 7.2 72.0- 6.7 5.7---- 8.2------------
1977-09-30 11.6 16.3 8.7 7.8 76.0- 3.0 2.3---- 0.0------------
1977-09-29 6.7 13.6 -0.9 -3.1 73.0- 4.3 0.7---- 0.0------------
1977-09-28 4.1 12.2 -1.2 -3.1 82.0- 1.3 0.0---- 0.0------------
1977-09-27 4.6 9.3 1.2 0.0 75.3- 0.0 5.0---- 0.0------------
1977-09-26 5.6 10.7 2.6 1.3 81.8- 0.0 4.7---- 0.0------------
1977-09-25 6.1 11.1 1.0 -0.6 80.5- 0.7 4.3---- 0.0------------
1977-09-24 8.8 12.1 7.0 5.8 86.8- 3.0 1.7---- 0.0------------
1977-09-23 9.5 11.6 8.1 8.2 96.0- 7.7 0.7---- 0.1------------
1977-09-22 8.0 9.2 6.9 7.1 97.3- 7.7 2.7---- 16.9------------
1977-09-21 8.4 9.1 7.4 8.2 97.5- 8.0 0.7---- 26.3------------
1977-09-20 8.2 10.5 6.1 6.4 91.8- 7.3 1.0---- 0.0------------
1977-09-19 6.8 7.9 6.1 6.3 96.8- 8.0 3.0---- 1.0------------
1977-09-18 6.3 10.6 2.1 0.8 85.5- 7.3 5.3---- 14.5------------
1977-09-17 6.8 11.4 4.0 1.7 83.0- 3.7 0.0---- 0.0------------
1977-09-16 7.0 11.3 5.4 5.3 83.3- 6.3 4.0---- 2.8------------
1977-09-15 11.4 12.9 9.6 8.8 78.3- 8.0 6.0---- 9.7------------
1977-09-14 8.7 13.9 2.9 1.0 72.0- 0.7 3.7---- 0.0------------
1977-09-13 11.1 19.3 8.3 8.6 74.5- 5.3 1.3---- 0.0------------
1977-09-12 17.5 22.6 12.5 12.8 79.8- 3.7 4.3---- 1.1------------
1977-09-11 10.5 12.7 8.2 7.8 91.8- 7.7 3.0---- 3.9------------
1977-09-10 10.9 13.6 7.9 6.8 79.8- 4.7 2.0---- 0.0------------
1977-09-09 12.4 15.9 9.1 9.3 95.3- 6.3 3.0---- 10.0------------
1977-09-08 16.5 20.5 15.4 13.2 91.5- 7.3 0.0---- 11.1------------
1977-09-07 18.0 24.3 11.3 9.4 80.0- 3.7 1.7---- 1.1------------
1977-09-06 16.4 20.3 13.2 12.2 90.0- 5.7 1.3---- 0.0------------
1977-09-05 16.0 18.8 13.3 11.2 89.8- 8.0 1.3---- 0.0------------
1977-09-04 18.1 24.0 11.7 9.6 82.3- 2.0 0.0---- 0.0------------
1977-09-03 19.1 26.3 12.2 9.6 74.8- 2.0 2.0---- 0.0------------
1977-09-02 19.2 24.6 15.7 16.4 76.0- 5.0 0.0---- 0.0------------
1977-09-01 19.6 25.7 13.6 11.4 78.0- 3.7 1.0---- 0.0------------
1977-08-31 19.9 27.8 12.3 10.0 77.0- 0.0 0.3---- 0.0------------
1977-08-30 18.2 25.5 11.0 9.3 77.5- 0.0 1.0---- 0.0------------
1977-08-29 16.6 22.3 11.1 9.8 78.8- 3.3 1.3---- 0.0------------
1977-08-28 16.4 20.4 14.3 12.2 87.3- 7.0 1.3---- 0.0------------
1977-08-27 17.2 24.4 11.7 6.6 78.3- 3.0 1.3---- 0.0------------
1977-08-26 14.6 22.4 7.9 4.8 75.8- 1.3 1.0---- 0.0------------
1977-08-25 12.9 18.1 8.3 8.0 75.3- 4.7 1.7---- 0.0------------
1977-08-24 12.4 14.8 10.3 10.2 81.8- 7.3 0.7---- 0.0------------
1977-08-23 11.7 13.5 11.1 11.7 95.8- 8.0 4.7---- 12.5------------
1977-08-22 15.2 17.9 13.5 14.7 94.3- 7.7 2.7---- 16.2------------
1977-08-21 16.2 20.8 12.9 10.7 88.3- 6.3 2.0---- 22.2------------
1977-08-20 14.2 18.5 11.5 11.7 85.3- 5.0 1.3---- 2.4------------
1977-08-19 15.9 19.2 14.7 13.7 96.0- 8.0 2.0---- 15.5------------
1977-08-18 16.2 22.3 10.5 9.3 81.3- 4.3 3.0---- 8.7------------
1977-08-17 13.7 19.3 7.4 6.6 79.5- 4.7 0.7---- 0.0------------
1977-08-16 12.9 15.3 10.7 8.9 92.5- 7.7 1.7---- 0.0------------
1977-08-15 15.9 19.5 14.1 13.3 86.8- 5.7 2.7---- 0.5------------
1977-08-14 16.4 20.0 14.3 14.7 91.3- 7.3 0.7---- 0.4------------
1977-08-13 18.3 25.0 12.1 10.9 79.3- 6.3 1.0---- 8.5------------
1977-08-12 16.7 23.0 11.7 10.4 76.5- 4.3 0.7---- 0.0------------
310.3 ms

 

Źródłem pochodzenia danych jest Instytut Meteorologii i Gospodarki Wodnej – Państwowy Instytut Badawczy. Dane Instytutu Meteorologii i Gospodarki Wodnej – Państwowego Instytutu Badawczego zostały przetworzone.

Dane źródłowe można odnaleźć na stronie https://dane.imgw.pl